sensor_id;sensor_type;location;lat;lon;timestamp;P1;durP1;ratioP1;P2;durP2;ratioP2
10166;SDS011;62970;53.130;8.244;2022-09-24T00:01:32;10.50;;;9.60;;
10166;SDS011;62970;53.130;8.244;2022-09-24T00:04:04;10.43;;;9.47;;
10166;SDS011;62970;53.130;8.244;2022-09-24T00:06:36;11.17;;;10.23;;
10166;SDS011;62970;53.130;8.244;2022-09-24T00:09:08;10.77;;;9.77;;
10166;SDS011;62970;53.130;8.244;2022-09-24T00:11:39;10.53;;;9.57;;
10166;SDS011;62970;53.130;8.244;2022-09-24T00:14:10;11.03;;;10.07;;
10166;SDS011;62970;53.130;8.244;2022-09-24T00:16:42;10.57;;;9.53;;
10166;SDS011;62970;53.130;8.244;2022-09-24T00:19:12;10.60;;;9.70;;
10166;SDS011;62970;53.130;8.244;2022-09-24T00:21:42;10.03;;;9.13;;
10166;SDS011;62970;53.130;8.244;2022-09-24T00:24:11;9.80;;;8.97;;
10166;SDS011;62970;53.130;8.244;2022-09-24T00:26:57;9.90;;;9.00;;
10166;SDS011;62970;53.130;8.244;2022-09-24T00:29:27;10.37;;;9.47;;
10166;SDS011;62970;53.130;8.244;2022-09-24T00:32:02;11.30;;;10.30;;
10166;SDS011;62970;53.130;8.244;2022-09-24T00:34:34;10.77;;;9.77;;
10166;SDS011;62970;53.130;8.244;2022-09-24T00:37:03;10.90;;;9.80;;
10166;SDS011;62970;53.130;8.244;2022-09-24T00:39:33;10.67;;;9.67;;
10166;SDS011;62970;53.130;8.244;2022-09-24T00:42:02;11.87;;;10.80;;
10166;SDS011;62970;53.130;8.244;2022-09-24T00:44:45;11.23;;;10.23;;
10166;SDS011;62970;53.130;8.244;2022-09-24T00:47:24;10.90;;;9.90;;
10166;SDS011;62970;53.130;8.244;2022-09-24T00:50:03;11.13;;;10.13;;
10166;SDS011;62970;53.130;8.244;2022-09-24T00:52:44;10.33;;;9.43;;
10166;SDS011;62970;53.130;8.244;2022-09-24T00:55:20;10.40;;;9.50;;
10166;SDS011;62970;53.130;8.244;2022-09-24T00:57:51;10.10;;;9.10;;
10166;SDS011;62970;53.130;8.244;2022-09-24T01:00:24;10.67;;;9.77;;
10166;SDS011;62970;53.130;8.244;2022-09-24T01:02:59;10.90;;;9.80;;
10166;SDS011;62970;53.130;8.244;2022-09-24T01:05:34;11.10;;;10.10;;
10166;SDS011;62970;53.130;8.244;2022-09-24T01:08:05;10.43;;;9.43;;
10166;SDS011;62970;53.130;8.244;2022-09-24T01:10:42;13.47;;;10.17;;
10166;SDS011;62970;53.130;8.244;2022-09-24T01:13:32;10.40;;;9.40;;
10166;SDS011;62970;53.130;8.244;2022-09-24T01:16:21;10.67;;;9.67;;
10166;SDS011;62970;53.130;8.244;2022-09-24T01:19:04;11.27;;;10.27;;
10166;SDS011;62970;53.130;8.244;2022-09-24T01:21:48;11.73;;;10.53;;
10166;SDS011;62970;53.130;8.244;2022-09-24T01:24:34;11.63;;;10.43;;
10166;SDS011;62970;53.130;8.244;2022-09-24T01:27:24;11.37;;;10.37;;
10166;SDS011;62970;53.130;8.244;2022-09-24T01:30:16;12.53;;;11.33;;
10166;SDS011;62970;53.130;8.244;2022-09-24T01:32:47;11.20;;;10.20;;
10166;SDS011;62970;53.130;8.244;2022-09-24T01:35:21;12.30;;;11.20;;
10166;SDS011;62970;53.130;8.244;2022-09-24T01:37:56;12.97;;;11.73;;
10166;SDS011;62970;53.130;8.244;2022-09-24T01:40:29;12.53;;;11.43;;
10166;SDS011;62970;53.130;8.244;2022-09-24T01:42:59;12.17;;;11.07;;
10166;SDS011;62970;53.130;8.244;2022-09-24T01:45:34;13.40;;;12.10;;
10166;SDS011;62970;53.130;8.244;2022-09-24T01:48:06;13.00;;;11.73;;
10166;SDS011;62970;53.130;8.244;2022-09-24T01:50:39;13.23;;;12.00;;
10166;SDS011;62970;53.130;8.244;2022-09-24T01:53:14;13.57;;;12.17;;
10166;SDS011;62970;53.130;8.244;2022-09-24T01:55:48;13.27;;;11.97;;
10166;SDS011;62970;53.130;8.244;2022-09-24T01:58:22;15.07;;;13.60;;
10166;SDS011;62970;53.130;8.244;2022-09-24T02:01:01;13.07;;;11.87;;
10166;SDS011;62970;53.130;8.244;2022-09-24T02:03:35;13.40;;;12.23;;
10166;SDS011;62970;53.130;8.244;2022-09-24T02:06:11;14.53;;;13.13;;
10166;SDS011;62970;53.130;8.244;2022-09-24T02:08:46;13.80;;;12.60;;
10166;SDS011;62970;53.130;8.244;2022-09-24T02:11:16;15.03;;;13.53;;
10166;SDS011;62970;53.130;8.244;2022-09-24T02:13:49;13.97;;;12.70;;
10166;SDS011;62970;53.130;8.244;2022-09-24T02:16:29;13.97;;;12.60;;
10166;SDS011;62970;53.130;8.244;2022-09-24T02:19:03;13.50;;;12.30;;
10166;SDS011;62970;53.130;8.244;2022-09-24T02:21:38;13.77;;;12.47;;
10166;SDS011;62970;53.130;8.244;2022-09-24T02:24:11;14.63;;;13.13;;
10166;SDS011;62970;53.130;8.244;2022-09-24T02:26:44;14.57;;;13.23;;
10166;SDS011;62970;53.130;8.244;2022-09-24T02:29:15;13.93;;;12.53;;
10166;SDS011;62970;53.130;8.244;2022-09-24T02:31:48;13.97;;;12.67;;
10166;SDS011;62970;53.130;8.244;2022-09-24T02:34:22;14.07;;;12.87;;
10166;SDS011;62970;53.130;8.244;2022-09-24T02:36:56;14.73;;;13.33;;
10166;SDS011;62970;53.130;8.244;2022-09-24T02:39:30;15.20;;;13.70;;
10166;SDS011;62970;53.130;8.244;2022-09-24T02:42:00;14.63;;;13.33;;
10166;SDS011;62970;53.130;8.244;2022-09-24T02:44:31;14.90;;;13.60;;
10166;SDS011;62970;53.130;8.244;2022-09-24T02:47:03;14.70;;;13.37;;
10166;SDS011;62970;53.130;8.244;2022-09-24T02:49:33;15.47;;;13.87;;
10166;SDS011;62970;53.130;8.244;2022-09-24T02:52:03;15.57;;;14.10;;
10166;SDS011;62970;53.130;8.244;2022-09-24T02:54:32;15.00;;;13.60;;
10166;SDS011;62970;53.130;8.244;2022-09-24T02:57:02;14.47;;;12.97;;
10166;SDS011;62970;53.130;8.244;2022-09-24T02:59:31;15.33;;;13.87;;
10166;SDS011;62970;53.130;8.244;2022-09-24T03:02:04;16.03;;;14.43;;
10166;SDS011;62970;53.130;8.244;2022-09-24T03:04:33;15.90;;;14.33;;
10166;SDS011;62970;53.130;8.244;2022-09-24T03:07:02;14.77;;;13.47;;
10166;SDS011;62970;53.130;8.244;2022-09-24T03:09:31;16.90;;;15.30;;
10166;SDS011;62970;53.130;8.244;2022-09-24T03:12:00;17.80;;;16.10;;
10166;SDS011;62970;53.130;8.244;2022-09-24T03:14:29;18.07;;;16.37;;
10166;SDS011;62970;53.130;8.244;2022-09-24T03:16:58;17.03;;;15.43;;
10166;SDS011;62970;53.130;8.244;2022-09-24T03:19:30;17.40;;;15.77;;
10166;SDS011;62970;53.130;8.244;2022-09-24T03:21:59;17.53;;;15.93;;
10166;SDS011;62970;53.130;8.244;2022-09-24T03:24:28;17.57;;;15.83;;
10166;SDS011;62970;53.130;8.244;2022-09-24T03:26:57;18.80;;;17.00;;
10166;SDS011;62970;53.130;8.244;2022-09-24T03:29:26;17.40;;;15.70;;
10166;SDS011;62970;53.130;8.244;2022-09-24T03:32:16;18.53;;;16.73;;
10166;SDS011;62970;53.130;8.244;2022-09-24T03:34:48;18.40;;;16.60;;
10166;SDS011;62970;53.130;8.244;2022-09-24T03:37:18;18.53;;;16.63;;
10166;SDS011;62970;53.130;8.244;2022-09-24T03:39:47;18.73;;;16.83;;
10166;SDS011;62970;53.130;8.244;2022-09-24T03:42:16;18.17;;;16.43;;
10166;SDS011;62970;53.130;8.244;2022-09-24T03:44:45;18.03;;;16.23;;
10166;SDS011;62970;53.130;8.244;2022-09-24T03:47:17;18.57;;;16.77;;
10166;SDS011;62970;53.130;8.244;2022-09-24T03:49:49;20.10;;;18.00;;
10166;SDS011;62970;53.130;8.244;2022-09-24T03:52:18;18.67;;;16.77;;
10166;SDS011;62970;53.130;8.244;2022-09-24T03:54:47;19.13;;;17.23;;
10166;SDS011;62970;53.130;8.244;2022-09-24T03:57:16;19.47;;;17.53;;
10166;SDS011;62970;53.130;8.244;2022-09-24T03:59:45;20.87;;;18.80;;
10166;SDS011;62970;53.130;8.244;2022-09-24T04:02:16;20.00;;;18.00;;
10166;SDS011;62970;53.130;8.244;2022-09-24T04:04:45;19.13;;;17.33;;
10166;SDS011;62970;53.130;8.244;2022-09-24T04:07:18;21.67;;;19.47;;
10166;SDS011;62970;53.130;8.244;2022-09-24T04:09:47;21.23;;;19.10;;
10166;SDS011;62970;53.130;8.244;2022-09-24T04:12:16;20.83;;;18.77;;
10166;SDS011;62970;53.130;8.244;2022-09-24T04:14:45;21.30;;;19.10;;
10166;SDS011;62970;53.130;8.244;2022-09-24T04:17:14;20.87;;;18.73;;
10166;SDS011;62970;53.130;8.244;2022-09-24T04:19:44;21.80;;;19.60;;
10166;SDS011;62970;53.130;8.244;2022-09-24T04:22:18;21.57;;;19.40;;
10166;SDS011;62970;53.130;8.244;2022-09-24T04:24:47;22.43;;;20.13;;
10166;SDS011;62970;53.130;8.244;2022-09-24T04:27:16;20.63;;;18.63;;
10166;SDS011;62970;53.130;8.244;2022-09-24T04:29:46;21.10;;;19.07;;
10166;SDS011;62970;53.130;8.244;2022-09-24T04:32:15;22.33;;;20.23;;
10166;SDS011;62970;53.130;8.244;2022-09-24T04:34:44;21.93;;;19.70;;
10166;SDS011;62970;53.130;8.244;2022-09-24T04:37:13;22.37;;;20.07;;
10166;SDS011;62970;53.130;8.244;2022-09-24T04:39:44;23.63;;;21.23;;
10166;SDS011;62970;53.130;8.244;2022-09-24T04:42:17;23.13;;;20.80;;
10166;SDS011;62970;53.130;8.244;2022-09-24T04:44:46;23.63;;;21.13;;
10166;SDS011;62970;53.130;8.244;2022-09-24T04:47:15;25.03;;;22.40;;
10166;SDS011;62970;53.130;8.244;2022-09-24T04:49:50;24.90;;;21.70;;
10166;SDS011;62970;53.130;8.244;2022-09-24T04:52:19;24.30;;;21.70;;
10166;SDS011;62970;53.130;8.244;2022-09-24T04:54:56;23.30;;;20.90;;
10166;SDS011;62970;53.130;8.244;2022-09-24T04:57:26;23.70;;;21.37;;
10166;SDS011;62970;53.130;8.244;2022-09-24T05:00:00;24.87;;;22.33;;
10166;SDS011;62970;53.130;8.244;2022-09-24T05:02:31;24.23;;;21.53;;
10166;SDS011;62970;53.130;8.244;2022-09-24T05:05:00;23.63;;;21.33;;
10166;SDS011;62970;53.130;8.244;2022-09-24T05:07:29;24.40;;;22.03;;
10166;SDS011;62970;53.130;8.244;2022-09-24T05:10:01;24.73;;;22.13;;
10166;SDS011;62970;53.130;8.244;2022-09-24T05:12:31;24.87;;;22.40;;
10166;SDS011;62970;53.130;8.244;2022-09-24T05:15:00;24.90;;;22.40;;
10166;SDS011;62970;53.130;8.244;2022-09-24T05:17:30;25.20;;;22.63;;
10166;SDS011;62970;53.130;8.244;2022-09-24T05:19:59;25.47;;;22.97;;
10166;SDS011;62970;53.130;8.244;2022-09-24T05:22:29;23.33;;;21.03;;
10166;SDS011;62970;53.130;8.244;2022-09-24T05:25:01;25.17;;;22.67;;
10166;SDS011;62970;53.130;8.244;2022-09-24T05:27:30;24.33;;;21.93;;
10166;SDS011;62970;53.130;8.244;2022-09-24T05:29:57;26.23;;;23.43;;
10166;SDS011;62970;53.130;8.244;2022-09-24T05:32:27;23.27;;;20.87;;
10166;SDS011;62970;53.130;8.244;2022-09-24T05:34:57;23.27;;;20.80;;
10166;SDS011;62970;53.130;8.244;2022-09-24T05:37:27;23.60;;;21.13;;
10166;SDS011;62970;53.130;8.244;2022-09-24T05:39:55;23.23;;;20.83;;
10166;SDS011;62970;53.130;8.244;2022-09-24T05:42:48;21.57;;;19.47;;
10166;SDS011;62970;53.130;8.244;2022-09-24T05:45:17;22.50;;;20.23;;
10166;SDS011;62970;53.130;8.244;2022-09-24T05:47:46;22.33;;;20.03;;
10166;SDS011;62970;53.130;8.244;2022-09-24T05:50:15;22.43;;;20.03;;
10166;SDS011;62970;53.130;8.244;2022-09-24T05:52:45;20.90;;;18.80;;
10166;SDS011;62970;53.130;8.244;2022-09-24T05:55:15;23.27;;;20.97;;
10166;SDS011;62970;53.130;8.244;2022-09-24T05:57:44;23.50;;;21.00;;
10166;SDS011;62970;53.130;8.244;2022-09-24T06:00:16;22.73;;;20.27;;
10166;SDS011;62970;53.130;8.244;2022-09-24T06:02:46;24.07;;;20.13;;
10166;SDS011;62970;53.130;8.244;2022-09-24T06:05:15;21.70;;;19.47;;
10166;SDS011;62970;53.130;8.244;2022-09-24T06:07:44;21.33;;;19.13;;
10166;SDS011;62970;53.130;8.244;2022-09-24T06:10:14;21.70;;;19.60;;
10166;SDS011;62970;53.130;8.244;2022-09-24T06:12:43;22.07;;;19.97;;
10166;SDS011;62970;53.130;8.244;2022-09-24T06:15:15;21.33;;;19.20;;
10166;SDS011;62970;53.130;8.244;2022-09-24T06:17:44;20.83;;;18.73;;
10166;SDS011;62970;53.130;8.244;2022-09-24T06:20:14;20.13;;;18.17;;
10166;SDS011;62970;53.130;8.244;2022-09-24T06:22:43;21.13;;;18.97;;
10166;SDS011;62970;53.130;8.244;2022-09-24T06:25:12;20.73;;;18.63;;
10166;SDS011;62970;53.130;8.244;2022-09-24T06:27:42;21.40;;;19.23;;
10166;SDS011;62970;53.130;8.244;2022-09-24T06:30:11;22.30;;;20.10;;
10166;SDS011;62970;53.130;8.244;2022-09-24T06:32:43;21.40;;;19.20;;
10166;SDS011;62970;53.130;8.244;2022-09-24T06:35:12;20.37;;;18.37;;
10166;SDS011;62970;53.130;8.244;2022-09-24T06:37:42;21.47;;;19.17;;
10166;SDS011;62970;53.130;8.244;2022-09-24T06:40:13;20.80;;;18.77;;
10166;SDS011;62970;53.130;8.244;2022-09-24T06:42:42;22.13;;;19.90;;
10166;SDS011;62970;53.130;8.244;2022-09-24T06:45:11;22.13;;;19.83;;
10166;SDS011;62970;53.130;8.244;2022-09-24T06:47:50;22.37;;;20.10;;
10166;SDS011;62970;53.130;8.244;2022-09-24T06:50:20;22.20;;;19.90;;
10166;SDS011;62970;53.130;8.244;2022-09-24T06:52:50;23.73;;;21.43;;
10166;SDS011;62970;53.130;8.244;2022-09-24T06:55:19;22.83;;;20.53;;
10166;SDS011;62970;53.130;8.244;2022-09-24T06:57:48;21.60;;;19.40;;
10166;SDS011;62970;53.130;8.244;2022-09-24T07:00:20;23.10;;;20.87;;
10166;SDS011;62970;53.130;8.244;2022-09-24T07:02:50;22.87;;;20.57;;
10166;SDS011;62970;53.130;8.244;2022-09-24T07:05:19;21.80;;;19.70;;
10166;SDS011;62970;53.130;8.244;2022-09-24T07:07:48;23.27;;;20.87;;
10166;SDS011;62970;53.130;8.244;2022-09-24T07:10:17;22.47;;;20.17;;
10166;SDS011;62970;53.130;8.244;2022-09-24T07:12:48;22.33;;;20.13;;
10166;SDS011;62970;53.130;8.244;2022-09-24T07:15:20;21.73;;;19.53;;
10166;SDS011;62970;53.130;8.244;2022-09-24T07:17:53;22.27;;;19.80;;
10166;SDS011;62970;53.130;8.244;2022-09-24T07:20:23;23.00;;;20.70;;
10166;SDS011;62970;53.130;8.244;2022-09-24T07:22:52;22.63;;;20.43;;
10166;SDS011;62970;53.130;8.244;2022-09-24T07:25:22;22.77;;;20.47;;
10166;SDS011;62970;53.130;8.244;2022-09-24T07:27:52;22.80;;;20.60;;
10166;SDS011;62970;53.130;8.244;2022-09-24T07:30:24;21.63;;;19.57;;
10166;SDS011;62970;53.130;8.244;2022-09-24T07:32:53;23.37;;;20.97;;
10166;SDS011;62970;53.130;8.244;2022-09-24T07:35:23;21.47;;;19.37;;
10166;SDS011;62970;53.130;8.244;2022-09-24T07:37:56;22.03;;;19.80;;
10166;SDS011;62970;53.130;8.244;2022-09-24T07:40:28;22.33;;;20.13;;
10166;SDS011;62970;53.130;8.244;2022-09-24T07:42:58;21.37;;;19.37;;
10166;SDS011;62970;53.130;8.244;2022-09-24T07:45:30;22.27;;;20.10;;
10166;SDS011;62970;53.130;8.244;2022-09-24T07:48:01;21.70;;;19.50;;
10166;SDS011;62970;53.130;8.244;2022-09-24T07:50:33;21.87;;;19.70;;
10166;SDS011;62970;53.130;8.244;2022-09-24T07:53:05;21.13;;;19.03;;
10166;SDS011;62970;53.130;8.244;2022-09-24T07:55:37;21.50;;;19.50;;
10166;SDS011;62970;53.130;8.244;2022-09-24T07:58:06;22.30;;;19.67;;
10166;SDS011;62970;53.130;8.244;2022-09-24T08:00:41;20.77;;;18.77;;
10166;SDS011;62970;53.130;8.244;2022-09-24T08:03:10;20.23;;;18.33;;
10166;SDS011;62970;53.130;8.244;2022-09-24T08:05:42;19.93;;;17.93;;
10166;SDS011;62970;53.130;8.244;2022-09-24T08:08:12;20.20;;;17.93;;
10166;SDS011;62970;53.130;8.244;2022-09-24T08:10:44;19.17;;;17.30;;
10166;SDS011;62970;53.130;8.244;2022-09-24T08:13:14;18.90;;;17.00;;
10166;SDS011;62970;53.130;8.244;2022-09-24T08:15:45;19.43;;;17.43;;
10166;SDS011;62970;53.130;8.244;2022-09-24T08:18:14;19.00;;;17.07;;
10166;SDS011;62970;53.130;8.244;2022-09-24T08:20:44;19.80;;;17.73;;
10166;SDS011;62970;53.130;8.244;2022-09-24T08:23:12;18.60;;;16.73;;
10166;SDS011;62970;53.130;8.244;2022-09-24T08:25:42;19.73;;;17.73;;
10166;SDS011;62970;53.130;8.244;2022-09-24T08:28:11;18.53;;;16.73;;
10166;SDS011;62970;53.130;8.244;2022-09-24T08:30:41;17.97;;;16.27;;
10166;SDS011;62970;53.130;8.244;2022-09-24T08:33:13;16.67;;;14.87;;
10166;SDS011;62970;53.130;8.244;2022-09-24T08:35:42;17.60;;;15.87;;
10166;SDS011;62970;53.130;8.244;2022-09-24T08:38:12;17.60;;;15.80;;
10166;SDS011;62970;53.130;8.244;2022-09-24T08:40:42;18.10;;;16.30;;
10166;SDS011;62970;53.130;8.244;2022-09-24T08:43:18;17.97;;;16.17;;
10166;SDS011;62970;53.130;8.244;2022-09-24T08:46:08;18.10;;;16.30;;
10166;SDS011;62970;53.130;8.244;2022-09-24T08:48:58;16.70;;;15.03;;
10166;SDS011;62970;53.130;8.244;2022-09-24T08:51:29;17.20;;;15.50;;
10166;SDS011;62970;53.130;8.244;2022-09-24T08:54:04;19.27;;;17.20;;
10166;SDS011;62970;53.130;8.244;2022-09-24T08:56:37;17.43;;;15.73;;
10166;SDS011;62970;53.130;8.244;2022-09-24T08:59:13;18.57;;;16.67;;
10166;SDS011;62970;53.130;8.244;2022-09-24T09:01:56;18.60;;;16.60;;
10166;SDS011;62970;53.130;8.244;2022-09-24T09:04:49;19.27;;;17.23;;
10166;SDS011;62970;53.130;8.244;2022-09-24T09:07:30;20.13;;;18.00;;
10166;SDS011;62970;53.130;8.244;2022-09-24T09:10:07;20.17;;;17.23;;
10166;SDS011;62970;53.130;8.244;2022-09-24T09:12:42;19.23;;;16.97;;
10166;SDS011;62970;53.130;8.244;2022-09-24T09:15:17;19.00;;;17.00;;
10166;SDS011;62970;53.130;8.244;2022-09-24T09:17:53;20.10;;;18.00;;
10166;SDS011;62970;53.130;8.244;2022-09-24T09:20:32;18.60;;;16.57;;
10166;SDS011;62970;53.130;8.244;2022-09-24T09:23:11;20.20;;;17.27;;
10166;SDS011;62970;53.130;8.244;2022-09-24T09:25:45;19.27;;;17.17;;
10166;SDS011;62970;53.130;8.244;2022-09-24T09:28:19;19.80;;;17.10;;
10166;SDS011;62970;53.130;8.244;2022-09-24T09:30:55;19.03;;;16.93;;
10166;SDS011;62970;53.130;8.244;2022-09-24T09:33:36;21.10;;;17.53;;
10166;SDS011;62970;53.130;8.244;2022-09-24T09:36:30;18.83;;;16.67;;
10166;SDS011;62970;53.130;8.244;2022-09-24T09:39:18;18.80;;;16.80;;
10166;SDS011;62970;53.130;8.244;2022-09-24T09:42:07;19.53;;;17.47;;
10166;SDS011;62970;53.130;8.244;2022-09-24T09:44:53;19.17;;;17.10;;
10166;SDS011;62970;53.130;8.244;2022-09-24T09:47:24;18.63;;;16.50;;
10166;SDS011;62970;53.130;8.244;2022-09-24T09:50:07;18.63;;;16.63;;
10166;SDS011;62970;53.130;8.244;2022-09-24T09:52:48;18.10;;;15.87;;
10166;SDS011;62970;53.130;8.244;2022-09-24T09:55:22;17.83;;;15.83;;
10166;SDS011;62970;53.130;8.244;2022-09-24T09:57:57;19.80;;;17.13;;
10166;SDS011;62970;53.130;8.244;2022-09-24T10:00:43;19.10;;;16.17;;
10166;SDS011;62970;53.130;8.244;2022-09-24T10:03:21;18.77;;;16.70;;
10166;SDS011;62970;53.130;8.244;2022-09-24T10:05:54;18.20;;;15.70;;
10166;SDS011;62970;53.130;8.244;2022-09-24T10:08:28;18.50;;;16.37;;
10166;SDS011;62970;53.130;8.244;2022-09-24T10:10:58;19.73;;;17.03;;
10166;SDS011;62970;53.130;8.244;2022-09-24T10:13:29;20.10;;;16.93;;
10166;SDS011;62970;53.130;8.244;2022-09-24T10:15:59;17.90;;;16.00;;
10166;SDS011;62970;53.130;8.244;2022-09-24T10:18:32;18.60;;;16.57;;
10166;SDS011;62970;53.130;8.244;2022-09-24T10:21:05;18.07;;;15.80;;
10166;SDS011;62970;53.130;8.244;2022-09-24T10:23:41;17.43;;;15.40;;
10166;SDS011;62970;53.130;8.244;2022-09-24T10:26:15;18.13;;;15.23;;
10166;SDS011;62970;53.130;8.244;2022-09-24T10:28:45;17.73;;;15.83;;
10166;SDS011;62970;53.130;8.244;2022-09-24T10:31:29;16.80;;;15.00;;
10166;SDS011;62970;53.130;8.244;2022-09-24T10:34:03;15.17;;;13.57;;
10166;SDS011;62970;53.130;8.244;2022-09-24T10:36:50;15.90;;;14.20;;
10166;SDS011;62970;53.130;8.244;2022-09-24T10:39:27;15.23;;;13.63;;
10166;SDS011;62970;53.130;8.244;2022-09-24T10:41:56;15.93;;;14.23;;
10166;SDS011;62970;53.130;8.244;2022-09-24T10:44:28;15.33;;;13.67;;
10166;SDS011;62970;53.130;8.244;2022-09-24T10:47:06;17.67;;;14.30;;
10166;SDS011;62970;53.130;8.244;2022-09-24T10:52:50;14.07;;;12.67;;
10166;SDS011;62970;53.130;8.244;2022-09-24T10:55:30;13.83;;;12.43;;
10166;SDS011;62970;53.130;8.244;2022-09-24T10:58:10;14.80;;;13.20;;
10166;SDS011;62970;53.130;8.244;2022-09-24T11:01:10;13.60;;;12.03;;
10166;SDS011;62970;53.130;8.244;2022-09-24T11:06:50;13.20;;;11.80;;
10166;SDS011;62970;53.130;8.244;2022-09-24T11:09:46;13.33;;;11.93;;
10166;SDS011;62970;53.130;8.244;2022-09-24T11:12:28;13.37;;;11.73;;
10166;SDS011;62970;53.130;8.244;2022-09-24T11:15:10;14.13;;;12.70;;
10166;SDS011;62970;53.130;8.244;2022-09-24T11:18:02;14.60;;;12.43;;
10166;SDS011;62970;53.130;8.244;2022-09-24T11:20:46;13.07;;;11.67;;
10166;SDS011;62970;53.130;8.244;2022-09-24T11:23:28;13.40;;;12.10;;
10166;SDS011;62970;53.130;8.244;2022-09-24T11:26:21;13.50;;;12.10;;
10166;SDS011;62970;53.130;8.244;2022-09-24T11:32:14;14.13;;;12.20;;
10166;SDS011;62970;53.130;8.244;2022-09-24T11:37:58;13.77;;;12.37;;
10166;SDS011;62970;53.130;8.244;2022-09-24T11:40:37;13.20;;;11.80;;
10166;SDS011;62970;53.130;8.244;2022-09-24T11:43:37;12.37;;;10.97;;
10166;SDS011;62970;53.130;8.244;2022-09-24T11:46:41;12.40;;;11.10;;
10166;SDS011;62970;53.130;8.244;2022-09-24T11:49:25;13.43;;;12.03;;
10166;SDS011;62970;53.130;8.244;2022-09-24T11:52:14;14.30;;;12.47;;
10166;SDS011;62970;53.130;8.244;2022-09-24T11:54:57;14.93;;;12.83;;
10166;SDS011;62970;53.130;8.244;2022-09-24T11:57:38;14.27;;;12.77;;
10166;SDS011;62970;53.130;8.244;2022-09-24T12:00:12;14.10;;;12.60;;
10166;SDS011;62970;53.130;8.244;2022-09-24T12:02:47;13.93;;;12.50;;
10166;SDS011;62970;53.130;8.244;2022-09-24T12:05:23;13.63;;;12.20;;
10166;SDS011;62970;53.130;8.244;2022-09-24T12:07:58;14.07;;;12.60;;
10166;SDS011;62970;53.130;8.244;2022-09-24T12:10:32;13.43;;;12.00;;
10166;SDS011;62970;53.130;8.244;2022-09-24T12:13:10;13.93;;;12.33;;
10166;SDS011;62970;53.130;8.244;2022-09-24T12:15:47;13.87;;;12.37;;
10166;SDS011;62970;53.130;8.244;2022-09-24T12:18:23;14.03;;;12.53;;
10166;SDS011;62970;53.130;8.244;2022-09-24T12:20:57;14.67;;;13.17;;
10166;SDS011;62970;53.130;8.244;2022-09-24T12:23:32;13.10;;;11.83;;
10166;SDS011;62970;53.130;8.244;2022-09-24T12:26:11;12.37;;;11.13;;
10166;SDS011;62970;53.130;8.244;2022-09-24T12:28:45;12.87;;;11.47;;
10166;SDS011;62970;53.130;8.244;2022-09-24T12:31:40;13.17;;;11.53;;
10166;SDS011;62970;53.130;8.244;2022-09-24T12:34:32;13.17;;;11.77;;
10166;SDS011;62970;53.130;8.244;2022-09-24T12:37:13;14.67;;;12.47;;
10166;SDS011;62970;53.130;8.244;2022-09-24T12:39:46;12.70;;;11.37;;
10166;SDS011;62970;53.130;8.244;2022-09-24T12:42:22;13.97;;;12.40;;
10166;SDS011;62970;53.130;8.244;2022-09-24T12:45:01;13.43;;;11.93;;
10166;SDS011;62970;53.130;8.244;2022-09-24T12:47:43;12.47;;;11.20;;
10166;SDS011;62970;53.130;8.244;2022-09-24T12:50:21;13.77;;;12.37;;
10166;SDS011;62970;53.130;8.244;2022-09-24T12:52:54;13.60;;;12.20;;
10166;SDS011;62970;53.130;8.244;2022-09-24T12:55:24;12.93;;;11.60;;
10166;SDS011;62970;53.130;8.244;2022-09-24T12:57:57;13.30;;;11.80;;
10166;SDS011;62970;53.130;8.244;2022-09-24T13:00:35;13.37;;;11.97;;
10166;SDS011;62970;53.130;8.244;2022-09-24T13:06:03;12.70;;;11.47;;
10166;SDS011;62970;53.130;8.244;2022-09-24T13:08:58;11.10;;;10.00;;
10166;SDS011;62970;53.130;8.244;2022-09-24T13:11:29;11.33;;;10.13;;
10166;SDS011;62970;53.130;8.244;2022-09-24T13:14:05;10.47;;;9.47;;
10166;SDS011;62970;53.130;8.244;2022-09-24T13:16:51;11.47;;;9.50;;
10166;SDS011;62970;53.130;8.244;2022-09-24T13:19:27;10.40;;;9.20;;
10166;SDS011;62970;53.130;8.244;2022-09-24T13:22:05;9.80;;;8.73;;
10166;SDS011;62970;53.130;8.244;2022-09-24T13:24:49;10.43;;;9.40;;
10166;SDS011;62970;53.130;8.244;2022-09-24T13:27:35;9.77;;;8.80;;
10166;SDS011;62970;53.130;8.244;2022-09-24T13:30:12;10.57;;;9.43;;
10166;SDS011;62970;53.130;8.244;2022-09-24T13:32:48;9.43;;;8.53;;
10166;SDS011;62970;53.130;8.244;2022-09-24T13:35:25;11.53;;;9.83;;
10166;SDS011;62970;53.130;8.244;2022-09-24T13:38:04;10.63;;;9.30;;
10166;SDS011;62970;53.130;8.244;2022-09-24T13:40:42;10.40;;;9.33;;
10166;SDS011;62970;53.130;8.244;2022-09-24T13:43:20;10.17;;;9.17;;
10166;SDS011;62970;53.130;8.244;2022-09-24T13:46:06;9.23;;;7.33;;
10166;SDS011;62970;53.130;8.244;2022-09-24T13:48:44;7.47;;;6.17;;
10166;SDS011;62970;53.130;8.244;2022-09-24T13:51:20;7.00;;;6.30;;
10166;SDS011;62970;53.130;8.244;2022-09-24T13:53:59;5.40;;;4.90;;
10166;SDS011;62970;53.130;8.244;2022-09-24T13:56:35;5.37;;;4.87;;
10166;SDS011;62970;53.130;8.244;2022-09-24T13:59:08;6.00;;;5.50;;
10166;SDS011;62970;53.130;8.244;2022-09-24T14:01:42;5.73;;;5.20;;
10166;SDS011;62970;53.130;8.244;2022-09-24T14:04:14;5.90;;;5.40;;
10166;SDS011;62970;53.130;8.244;2022-09-24T14:06:49;6.10;;;5.50;;
10166;SDS011;62970;53.130;8.244;2022-09-24T14:09:28;6.40;;;5.77;;
10166;SDS011;62970;53.130;8.244;2022-09-24T14:11:59;5.60;;;5.10;;
10166;SDS011;62970;53.130;8.244;2022-09-24T14:14:41;7.07;;;6.37;;
10166;SDS011;62970;53.130;8.244;2022-09-24T14:17:13;7.13;;;6.43;;
10166;SDS011;62970;53.130;8.244;2022-09-24T14:19:46;7.90;;;6.90;;
10166;SDS011;62970;53.130;8.244;2022-09-24T14:22:17;7.33;;;6.47;;
10166;SDS011;62970;53.130;8.244;2022-09-24T14:24:55;7.17;;;6.57;;
10166;SDS011;62970;53.130;8.244;2022-09-24T14:27:28;7.63;;;6.83;;
10166;SDS011;62970;53.130;8.244;2022-09-24T14:29:59;7.47;;;6.80;;
10166;SDS011;62970;53.130;8.244;2022-09-24T14:32:32;7.40;;;6.70;;
10166;SDS011;62970;53.130;8.244;2022-09-24T14:35:04;7.23;;;6.63;;
10166;SDS011;62970;53.130;8.244;2022-09-24T14:37:44;6.60;;;6.00;;
10166;SDS011;62970;53.130;8.244;2022-09-24T14:40:21;6.30;;;5.80;;
10166;SDS011;62970;53.130;8.244;2022-09-24T14:42:52;5.67;;;5.17;;
10166;SDS011;62970;53.130;8.244;2022-09-24T14:45:25;5.63;;;5.00;;
10166;SDS011;62970;53.130;8.244;2022-09-24T14:47:58;4.27;;;3.90;;
10166;SDS011;62970;53.130;8.244;2022-09-24T14:50:32;4.40;;;4.00;;
10166;SDS011;62970;53.130;8.244;2022-09-24T14:53:16;4.10;;;3.80;;
10166;SDS011;62970;53.130;8.244;2022-09-24T14:56:05;4.20;;;3.80;;
10166;SDS011;62970;53.130;8.244;2022-09-24T14:58:47;3.80;;;3.50;;
10166;SDS011;62970;53.130;8.244;2022-09-24T15:01:18;4.43;;;4.03;;
10166;SDS011;62970;53.130;8.244;2022-09-24T15:03:52;4.27;;;3.40;;
10166;SDS011;62970;53.130;8.244;2022-09-24T15:06:24;3.63;;;3.33;;
10166;SDS011;62970;53.130;8.244;2022-09-24T15:09:00;3.30;;;3.00;;
10166;SDS011;62970;53.130;8.244;2022-09-24T15:11:34;4.67;;;3.57;;
10166;SDS011;62970;53.130;8.244;2022-09-24T15:14:11;3.60;;;3.30;;
10166;SDS011;62970;53.130;8.244;2022-09-24T15:16:50;2.97;;;2.67;;
10166;SDS011;62970;53.130;8.244;2022-09-24T15:19:20;2.37;;;2.17;;
10166;SDS011;62970;53.130;8.244;2022-09-24T15:21:54;2.03;;;1.83;;
10166;SDS011;62970;53.130;8.244;2022-09-24T15:24:27;1.90;;;1.80;;